Grappenhall, United Kingdom
Current Conditions -  °F | °C
As of 9:20 PM on Friday 26 Dec 2014 (Local Time) from EGCC Reporting Station
Light Snow Light Snow  
Wind Chill: 23°   Ceiling: 1200
Heat Index: 34°   Visibility: 6mi
Dew Point: 32°   Wind: 18mph
Humidity: 93%   Direction: 40°NE
Pressure: 29.74"   Gusts: NA
Location:  53.37°N, 2.55°W
Report Text: EGCC 262120Z 04016KT 9000 -RASN FEW008 BKN012 01/00 Q1007 NOSIG
Loading
Personal Weather Stations






























Interactive Weather Map New forecast layout! Learn more

10-Day Weather Forecast

Advertisements
Track Severe Weather on mobile